sensor_id;sensor_type;location;lat;lon;timestamp;P1;durP1;ratioP1;P2;durP2;ratioP2
18376;SDS011;9315;52.624;13.544;2023-10-31T00:00:14;6.60;;;3.73;;
18376;SDS011;9315;52.624;13.544;2023-10-31T00:02:43;7.93;;;3.30;;
18376;SDS011;9315;52.624;13.544;2023-10-31T00:05:10;8.37;;;3.87;;
18376;SDS011;9315;52.624;13.544;2023-10-31T00:07:38;9.90;;;4.17;;
18376;SDS011;9315;52.624;13.544;2023-10-31T00:10:05;8.03;;;4.13;;
18376;SDS011;9315;52.624;13.544;2023-10-31T00:12:33;7.13;;;4.07;;
18376;SDS011;9315;52.624;13.544;2023-10-31T00:15:01;9.67;;;4.17;;
18376;SDS011;9315;52.624;13.544;2023-10-31T00:17:29;8.80;;;3.60;;
18376;SDS011;9315;52.624;13.544;2023-10-31T00:19:56;7.97;;;4.53;;
18376;SDS011;9315;52.624;13.544;2023-10-31T00:22:24;12.63;;;4.30;;
18376;SDS011;9315;52.624;13.544;2023-10-31T00:24:51;7.50;;;4.07;;
18376;SDS011;9315;52.624;13.544;2023-10-31T00:27:18;6.93;;;3.80;;
18376;SDS011;9315;52.624;13.544;2023-10-31T00:29:46;12.03;;;4.10;;
18376;SDS011;9315;52.624;13.544;2023-10-31T00:32:13;9.03;;;4.00;;
18376;SDS011;9315;52.624;13.544;2023-10-31T00:34:41;9.23;;;3.90;;
18376;SDS011;9315;52.624;13.544;2023-10-31T00:37:08;10.93;;;4.33;;
18376;SDS011;9315;52.624;13.544;2023-10-31T00:39:36;8.87;;;3.50;;
18376;SDS011;9315;52.624;13.544;2023-10-31T00:42:03;11.03;;;4.20;;
18376;SDS011;9315;52.624;13.544;2023-10-31T00:44:31;8.97;;;3.97;;
18376;SDS011;9315;52.624;13.544;2023-10-31T00:46:58;7.90;;;3.80;;
18376;SDS011;9315;52.624;13.544;2023-10-31T00:49:26;7.50;;;4.10;;
18376;SDS011;9315;52.624;13.544;2023-10-31T00:51:53;10.23;;;4.00;;
18376;SDS011;9315;52.624;13.544;2023-10-31T00:54:22;19.87;;;4.30;;
18376;SDS011;9315;52.624;13.544;2023-10-31T00:56:50;7.83;;;4.00;;
18376;SDS011;9315;52.624;13.544;2023-10-31T00:59:17;8.50;;;4.50;;
18376;SDS011;9315;52.624;13.544;2023-10-31T01:01:44;8.70;;;3.90;;
18376;SDS011;9315;52.624;13.544;2023-10-31T01:04:12;12.77;;;4.60;;
18376;SDS011;9315;52.624;13.544;2023-10-31T01:06:42;10.33;;;4.87;;
18376;SDS011;9315;52.624;13.544;2023-10-31T01:09:10;9.13;;;4.83;;
18376;SDS011;9315;52.624;13.544;2023-10-31T01:11:38;9.47;;;4.80;;
18376;SDS011;9315;52.624;13.544;2023-10-31T01:14:05;14.07;;;5.27;;
18376;SDS011;9315;52.624;13.544;2023-10-31T01:16:33;11.20;;;5.17;;
18376;SDS011;9315;52.624;13.544;2023-10-31T01:19:00;9.20;;;4.10;;
18376;SDS011;9315;52.624;13.544;2023-10-31T01:21:28;6.80;;;3.80;;
18376;SDS011;9315;52.624;13.544;2023-10-31T01:23:56;14.23;;;5.23;;
18376;SDS011;9315;52.624;13.544;2023-10-31T01:26:25;10.07;;;4.70;;
18376;SDS011;9315;52.624;13.544;2023-10-31T01:28:52;12.73;;;4.67;;
18376;SDS011;9315;52.624;13.544;2023-10-31T01:31:20;12.77;;;5.30;;
18376;SDS011;9315;52.624;13.544;2023-10-31T01:33:47;9.77;;;4.13;;
18376;SDS011;9315;52.624;13.544;2023-10-31T01:36:15;10.53;;;4.80;;
18376;SDS011;9315;52.624;13.544;2023-10-31T01:38:44;8.63;;;4.10;;
18376;SDS011;9315;52.624;13.544;2023-10-31T01:41:12;10.40;;;4.87;;
18376;SDS011;9315;52.624;13.544;2023-10-31T01:43:40;10.20;;;4.37;;
18376;SDS011;9315;52.624;13.544;2023-10-31T01:46:08;7.20;;;3.63;;
18376;SDS011;9315;52.624;13.544;2023-10-31T01:48:35;10.73;;;4.93;;
18376;SDS011;9315;52.624;13.544;2023-10-31T01:51:03;11.53;;;5.80;;
18376;SDS011;9315;52.624;13.544;2023-10-31T01:53:32;10.63;;;5.70;;
18376;SDS011;9315;52.624;13.544;2023-10-31T01:56:01;11.73;;;5.90;;
18376;SDS011;9315;52.624;13.544;2023-10-31T01:58:31;13.37;;;6.50;;
18376;SDS011;9315;52.624;13.544;2023-10-31T02:01:03;11.67;;;5.93;;
18376;SDS011;9315;52.624;13.544;2023-10-31T02:03:33;15.63;;;6.83;;
18376;SDS011;9315;52.624;13.544;2023-10-31T02:06:00;13.77;;;7.37;;
18376;SDS011;9315;52.624;13.544;2023-10-31T02:08:28;15.13;;;8.17;;
18376;SDS011;9315;52.624;13.544;2023-10-31T02:10:56;13.87;;;7.50;;
18376;SDS011;9315;52.624;13.544;2023-10-31T02:13:24;15.77;;;7.77;;
18376;SDS011;9315;52.624;13.544;2023-10-31T02:15:52;12.80;;;6.60;;
18376;SDS011;9315;52.624;13.544;2023-10-31T02:18:19;9.50;;;5.47;;
18376;SDS011;9315;52.624;13.544;2023-10-31T02:20:47;11.97;;;5.80;;
18376;SDS011;9315;52.624;13.544;2023-10-31T02:23:15;11.97;;;6.20;;
18376;SDS011;9315;52.624;13.544;2023-10-31T02:25:43;13.13;;;5.33;;
18376;SDS011;9315;52.624;13.544;2023-10-31T02:28:10;11.57;;;6.27;;
18376;SDS011;9315;52.624;13.544;2023-10-31T02:30:38;11.17;;;5.93;;
18376;SDS011;9315;52.624;13.544;2023-10-31T02:33:05;9.57;;;5.60;;
18376;SDS011;9315;52.624;13.544;2023-10-31T02:35:33;10.30;;;5.83;;
18376;SDS011;9315;52.624;13.544;2023-10-31T02:38:01;14.27;;;7.13;;
18376;SDS011;9315;52.624;13.544;2023-10-31T02:40:28;9.83;;;5.90;;
18376;SDS011;9315;52.624;13.544;2023-10-31T02:42:56;14.30;;;5.80;;
18376;SDS011;9315;52.624;13.544;2023-10-31T02:45:23;11.17;;;6.70;;
18376;SDS011;9315;52.624;13.544;2023-10-31T02:47:50;8.70;;;4.17;;
18376;SDS011;9315;52.624;13.544;2023-10-31T02:50:18;11.73;;;7.37;;
18376;SDS011;9315;52.624;13.544;2023-10-31T02:52:46;17.23;;;8.73;;
18376;SDS011;9315;52.624;13.544;2023-10-31T02:55:13;19.50;;;8.50;;
18376;SDS011;9315;52.624;13.544;2023-10-31T02:57:41;19.00;;;8.53;;
18376;SDS011;9315;52.624;13.544;2023-10-31T03:00:08;19.70;;;9.10;;
18376;SDS011;9315;52.624;13.544;2023-10-31T03:02:36;16.20;;;9.10;;
18376;SDS011;9315;52.624;13.544;2023-10-31T03:05:04;21.43;;;9.43;;
18376;SDS011;9315;52.624;13.544;2023-10-31T03:07:33;15.77;;;8.47;;
18376;SDS011;9315;52.624;13.544;2023-10-31T03:10:00;13.63;;;7.00;;
18376;SDS011;9315;52.624;13.544;2023-10-31T03:12:29;15.30;;;9.20;;
18376;SDS011;9315;52.624;13.544;2023-10-31T03:14:56;14.07;;;7.50;;
18376;SDS011;9315;52.624;13.544;2023-10-31T03:17:23;10.23;;;6.17;;
18376;SDS011;9315;52.624;13.544;2023-10-31T03:19:52;16.93;;;8.47;;
18376;SDS011;9315;52.624;13.544;2023-10-31T03:22:20;12.43;;;6.93;;
18376;SDS011;9315;52.624;13.544;2023-10-31T03:24:48;14.37;;;7.33;;
18376;SDS011;9315;52.624;13.544;2023-10-31T03:27:15;20.97;;;8.47;;
18376;SDS011;9315;52.624;13.544;2023-10-31T03:29:43;19.53;;;9.67;;
18376;SDS011;9315;52.624;13.544;2023-10-31T03:32:11;20.43;;;10.43;;
18376;SDS011;9315;52.624;13.544;2023-10-31T03:34:39;19.30;;;9.70;;
18376;SDS011;9315;52.624;13.544;2023-10-31T03:37:06;22.57;;;11.00;;
18376;SDS011;9315;52.624;13.544;2023-10-31T03:39:34;19.27;;;10.27;;
18376;SDS011;9315;52.624;13.544;2023-10-31T03:42:01;22.83;;;10.83;;
18376;SDS011;9315;52.624;13.544;2023-10-31T03:44:29;18.40;;;10.93;;
18376;SDS011;9315;52.624;13.544;2023-10-31T03:46:57;15.17;;;8.93;;
18376;SDS011;9315;52.624;13.544;2023-10-31T03:49:24;18.10;;;9.70;;
18376;SDS011;9315;52.624;13.544;2023-10-31T03:51:52;24.20;;;12.63;;
18376;SDS011;9315;52.624;13.544;2023-10-31T03:54:19;17.90;;;9.97;;
18376;SDS011;9315;52.624;13.544;2023-10-31T03:56:47;24.60;;;11.80;;
18376;SDS011;9315;52.624;13.544;2023-10-31T03:59:16;25.27;;;11.40;;
18376;SDS011;9315;52.624;13.544;2023-10-31T04:01:44;21.40;;;11.77;;
18376;SDS011;9315;52.624;13.544;2023-10-31T04:04:12;18.87;;;9.70;;
18376;SDS011;9315;52.624;13.544;2023-10-31T04:06:39;31.13;;;12.90;;
18376;SDS011;9315;52.624;13.544;2023-10-31T04:09:08;22.37;;;11.47;;
18376;SDS011;9315;52.624;13.544;2023-10-31T04:11:36;19.43;;;11.67;;
18376;SDS011;9315;52.624;13.544;2023-10-31T04:14:05;26.77;;;12.67;;
18376;SDS011;9315;52.624;13.544;2023-10-31T04:16:32;26.10;;;11.60;;
18376;SDS011;9315;52.624;13.544;2023-10-31T04:19:12;21.80;;;10.57;;
18376;SDS011;9315;52.624;13.544;2023-10-31T04:21:40;19.60;;;9.77;;
18376;SDS011;9315;52.624;13.544;2023-10-31T04:24:07;22.33;;;12.27;;
18376;SDS011;9315;52.624;13.544;2023-10-31T04:26:38;23.20;;;12.63;;
18376;SDS011;9315;52.624;13.544;2023-10-31T04:29:08;20.40;;;11.43;;
18376;SDS011;9315;52.624;13.544;2023-10-31T04:31:36;24.93;;;11.60;;
18376;SDS011;9315;52.624;13.544;2023-10-31T04:34:09;25.67;;;13.20;;
18376;SDS011;9315;52.624;13.544;2023-10-31T04:36:37;19.57;;;11.37;;
18376;SDS011;9315;52.624;13.544;2023-10-31T04:39:04;21.17;;;11.63;;
18376;SDS011;9315;52.624;13.544;2023-10-31T04:41:32;22.70;;;12.07;;
18376;SDS011;9315;52.624;13.544;2023-10-31T04:44:00;22.57;;;11.07;;
18376;SDS011;9315;52.624;13.544;2023-10-31T04:46:28;22.53;;;10.20;;
18376;SDS011;9315;52.624;13.544;2023-10-31T04:48:55;21.73;;;13.07;;
18376;SDS011;9315;52.624;13.544;2023-10-31T04:51:22;13.07;;;6.67;;
18376;SDS011;9315;52.624;13.544;2023-10-31T04:53:50;24.97;;;11.60;;
18376;SDS011;9315;52.624;13.544;2023-10-31T04:56:17;22.93;;;12.00;;
18376;SDS011;9315;52.624;13.544;2023-10-31T04:58:45;22.17;;;11.33;;
18376;SDS011;9315;52.624;13.544;2023-10-31T05:01:13;24.50;;;11.90;;
18376;SDS011;9315;52.624;13.544;2023-10-31T05:03:41;16.40;;;9.83;;
18376;SDS011;9315;52.624;13.544;2023-10-31T05:06:08;19.43;;;11.20;;
18376;SDS011;9315;52.624;13.544;2023-10-31T05:08:36;19.20;;;11.70;;
18376;SDS011;9315;52.624;13.544;2023-10-31T05:11:03;19.93;;;11.50;;
18376;SDS011;9315;52.624;13.544;2023-10-31T05:13:31;19.40;;;11.27;;
18376;SDS011;9315;52.624;13.544;2023-10-31T05:15:58;18.87;;;11.10;;
18376;SDS011;9315;52.624;13.544;2023-10-31T05:18:26;17.37;;;11.13;;
18376;SDS011;9315;52.624;13.544;2023-10-31T05:20:53;23.67;;;12.93;;
18376;SDS011;9315;52.624;13.544;2023-10-31T05:23:20;20.57;;;11.43;;
18376;SDS011;9315;52.624;13.544;2023-10-31T05:25:48;18.73;;;12.47;;
18376;SDS011;9315;52.624;13.544;2023-10-31T05:28:15;28.00;;;13.90;;
18376;SDS011;9315;52.624;13.544;2023-10-31T05:30:43;24.03;;;12.50;;
18376;SDS011;9315;52.624;13.544;2023-10-31T05:33:10;24.10;;;12.70;;
18376;SDS011;9315;52.624;13.544;2023-10-31T05:35:38;25.90;;;12.80;;
18376;SDS011;9315;52.624;13.544;2023-10-31T05:38:05;28.60;;;14.13;;
18376;SDS011;9315;52.624;13.544;2023-10-31T05:40:33;28.47;;;13.00;;
18376;SDS011;9315;52.624;13.544;2023-10-31T05:43:02;25.57;;;14.07;;
18376;SDS011;9315;52.624;13.544;2023-10-31T05:45:30;32.13;;;16.20;;
18376;SDS011;9315;52.624;13.544;2023-10-31T05:47:57;32.60;;;17.00;;
18376;SDS011;9315;52.624;13.544;2023-10-31T05:50:25;24.57;;;12.27;;
18376;SDS011;9315;52.624;13.544;2023-10-31T05:52:52;27.03;;;13.40;;
18376;SDS011;9315;52.624;13.544;2023-10-31T05:55:20;25.70;;;12.77;;
18376;SDS011;9315;52.624;13.544;2023-10-31T05:57:47;25.30;;;13.23;;
18376;SDS011;9315;52.624;13.544;2023-10-31T06:00:15;25.07;;;13.00;;
18376;SDS011;9315;52.624;13.544;2023-10-31T06:02:43;27.07;;;13.53;;
18376;SDS011;9315;52.624;13.544;2023-10-31T06:05:10;18.73;;;10.87;;
18376;SDS011;9315;52.624;13.544;2023-10-31T06:07:38;29.23;;;15.20;;
18376;SDS011;9315;52.624;13.544;2023-10-31T06:10:05;19.73;;;11.47;;
18376;SDS011;9315;52.624;13.544;2023-10-31T06:12:34;20.10;;;9.90;;
18376;SDS011;9315;52.624;13.544;2023-10-31T06:15:01;15.77;;;10.30;;
18376;SDS011;9315;52.624;13.544;2023-10-31T06:17:29;17.37;;;10.03;;
18376;SDS011;9315;52.624;13.544;2023-10-31T06:20:01;20.40;;;11.67;;
18376;SDS011;9315;52.624;13.544;2023-10-31T06:22:29;20.27;;;11.47;;
18376;SDS011;9315;52.624;13.544;2023-10-31T06:24:57;19.43;;;11.17;;
18376;SDS011;9315;52.624;13.544;2023-10-31T06:27:24;25.13;;;12.70;;
18376;SDS011;9315;52.624;13.544;2023-10-31T06:29:52;14.93;;;9.67;;
18376;SDS011;9315;52.624;13.544;2023-10-31T06:32:41;14.23;;;8.37;;
18376;SDS011;9315;52.624;13.544;2023-10-31T06:35:09;11.47;;;8.07;;
18376;SDS011;9315;52.624;13.544;2023-10-31T06:37:37;14.70;;;9.50;;
18376;SDS011;9315;52.624;13.544;2023-10-31T06:40:04;17.77;;;10.60;;
18376;SDS011;9315;52.624;13.544;2023-10-31T06:42:33;22.93;;;12.50;;
18376;SDS011;9315;52.624;13.544;2023-10-31T06:45:03;21.67;;;10.90;;
18376;SDS011;9315;52.624;13.544;2023-10-31T06:47:31;28.37;;;13.07;;
18376;SDS011;9315;52.624;13.544;2023-10-31T06:49:59;31.50;;;14.10;;
18376;SDS011;9315;52.624;13.544;2023-10-31T06:52:26;34.13;;;15.80;;
18376;SDS011;9315;52.624;13.544;2023-10-31T06:54:53;36.77;;;15.73;;
18376;SDS011;9315;52.624;13.544;2023-10-31T06:57:21;25.07;;;14.03;;
18376;SDS011;9315;52.624;13.544;2023-10-31T06:59:49;34.60;;;15.80;;
18376;SDS011;9315;52.624;13.544;2023-10-31T07:02:16;43.97;;;19.10;;
18376;SDS011;9315;52.624;13.544;2023-10-31T07:04:44;23.87;;;14.03;;
18376;SDS011;9315;52.624;13.544;2023-10-31T07:07:11;26.17;;;13.93;;
18376;SDS011;9315;52.624;13.544;2023-10-31T07:09:39;26.73;;;13.83;;
18376;SDS011;9315;52.624;13.544;2023-10-31T07:12:06;21.97;;;13.07;;
18376;SDS011;9315;52.624;13.544;2023-10-31T07:14:34;22.63;;;13.50;;
18376;SDS011;9315;52.624;13.544;2023-10-31T07:17:02;19.73;;;13.70;;
18376;SDS011;9315;52.624;13.544;2023-10-31T07:19:30;22.90;;;14.93;;
18376;SDS011;9315;52.624;13.544;2023-10-31T07:21:57;22.63;;;14.47;;
18376;SDS011;9315;52.624;13.544;2023-10-31T07:24:24;24.13;;;14.87;;
18376;SDS011;9315;52.624;13.544;2023-10-31T07:26:54;26.60;;;14.67;;
18376;SDS011;9315;52.624;13.544;2023-10-31T07:29:21;17.63;;;11.87;;
18376;SDS011;9315;52.624;13.544;2023-10-31T07:31:49;15.80;;;10.50;;
18376;SDS011;9315;52.624;13.544;2023-10-31T07:34:17;9.33;;;6.30;;
18376;SDS011;9315;52.624;13.544;2023-10-31T07:36:44;6.97;;;4.83;;
18376;SDS011;9315;52.624;13.544;2023-10-31T07:39:12;6.83;;;3.63;;
18376;SDS011;9315;52.624;13.544;2023-10-31T07:41:41;4.80;;;3.53;;
18376;SDS011;9315;52.624;13.544;2023-10-31T07:44:08;4.30;;;2.60;;
18376;SDS011;9315;52.624;13.544;2023-10-31T07:46:36;3.83;;;2.90;;
18376;SDS011;9315;52.624;13.544;2023-10-31T07:49:03;6.17;;;2.73;;
18376;SDS011;9315;52.624;13.544;2023-10-31T07:51:31;4.03;;;2.50;;
18376;SDS011;9315;52.624;13.544;2023-10-31T07:54:04;6.77;;;3.40;;
18376;SDS011;9315;52.624;13.544;2023-10-31T07:56:41;4.97;;;2.50;;
18376;SDS011;9315;52.624;13.544;2023-10-31T07:59:09;4.23;;;2.20;;
18376;SDS011;9315;52.624;13.544;2023-10-31T08:01:43;2.30;;;2.00;;
18376;SDS011;9315;52.624;13.544;2023-10-31T08:04:14;3.43;;;2.37;;
18376;SDS011;9315;52.624;13.544;2023-10-31T08:06:44;3.13;;;2.00;;
18376;SDS011;9315;52.624;13.544;2023-10-31T08:09:17;1.90;;;1.60;;
18376;SDS011;9315;52.624;13.544;2023-10-31T08:12:03;2.90;;;1.47;;
18376;SDS011;9315;52.624;13.544;2023-10-31T08:14:47;3.30;;;2.20;;
18376;SDS011;9315;52.624;13.544;2023-10-31T08:17:38;3.80;;;1.93;;
18376;SDS011;9315;52.624;13.544;2023-10-31T08:20:24;3.57;;;1.30;;
18376;SDS011;9315;52.624;13.544;2023-10-31T08:22:55;3.03;;;1.27;;
18376;SDS011;9315;52.624;13.544;2023-10-31T08:25:23;2.37;;;1.20;;
18376;SDS011;9315;52.624;13.544;2023-10-31T08:28:04;1.17;;;1.07;;
18376;SDS011;9315;52.624;13.544;2023-10-31T08:31:02;3.03;;;0.83;;
18376;SDS011;9315;52.624;13.544;2023-10-31T08:33:41;4.97;;;0.70;;
18376;SDS011;9315;52.624;13.544;2023-10-31T08:36:23;1.40;;;0.60;;
18376;SDS011;9315;52.624;13.544;2023-10-31T08:38:59;1.50;;;0.60;;
18376;SDS011;9315;52.624;13.544;2023-10-31T08:41:30;0.50;;;0.43;;
18376;SDS011;9315;52.624;13.544;2023-10-31T08:44:05;0.87;;;0.40;;
18376;SDS011;9315;52.624;13.544;2023-10-31T08:46:34;1.17;;;0.40;;
18376;SDS011;9315;52.624;13.544;2023-10-31T08:49:01;2.27;;;0.50;;
18376;SDS011;9315;52.624;13.544;2023-10-31T08:51:29;3.60;;;0.50;;
18376;SDS011;9315;52.624;13.544;2023-10-31T08:53:56;2.27;;;0.60;;
18376;SDS011;9315;52.624;13.544;2023-10-31T08:56:24;1.63;;;0.40;;
18376;SDS011;9315;52.624;13.544;2023-10-31T08:58:54;0.43;;;0.43;;
18376;SDS011;9315;52.624;13.544;2023-10-31T09:01:21;2.43;;;0.40;;
18376;SDS011;9315;52.624;13.544;2023-10-31T09:03:49;0.77;;;0.40;;
18376;SDS011;9315;52.624;13.544;2023-10-31T09:06:18;0.20;;;0.20;;
18376;SDS011;9315;52.624;13.544;2023-10-31T09:08:46;1.47;;;0.33;;
18376;SDS011;9315;52.624;13.544;2023-10-31T09:11:13;0.37;;;0.37;;
18376;SDS011;9315;52.624;13.544;2023-10-31T09:13:44;0.60;;;0.27;;
18376;SDS011;9315;52.624;13.544;2023-10-31T09:16:14;0.57;;;0.40;;
18376;SDS011;9315;52.624;13.544;2023-10-31T09:18:42;3.17;;;1.30;;
18376;SDS011;9315;52.624;13.544;2023-10-31T09:21:10;0.20;;;0.20;;
18376;SDS011;9315;52.624;13.544;2023-10-31T09:23:40;6.23;;;0.30;;
18376;SDS011;9315;52.624;13.544;2023-10-31T09:26:08;0.20;;;0.20;;
18376;SDS011;9315;52.624;13.544;2023-10-31T09:28:35;0.30;;;0.30;;
18376;SDS011;9315;52.624;13.544;2023-10-31T09:31:06;0.37;;;0.30;;
18376;SDS011;9315;52.624;13.544;2023-10-31T09:33:35;0.93;;;0.30;;
18376;SDS011;9315;52.624;13.544;2023-10-31T09:36:03;0.77;;;0.20;;
18376;SDS011;9315;52.624;13.544;2023-10-31T09:38:31;2.40;;;0.30;;
18376;SDS011;9315;52.624;13.544;2023-10-31T09:40:59;1.43;;;0.20;;
18376;SDS011;9315;52.624;13.544;2023-10-31T09:43:27;3.90;;;0.20;;
18376;SDS011;9315;52.624;13.544;2023-10-31T09:45:58;1.40;;;0.20;;
18376;SDS011;9315;52.624;13.544;2023-10-31T09:48:30;0.60;;;0.30;;
18376;SDS011;9315;52.624;13.544;2023-10-31T09:50:59;1.90;;;0.30;;
18376;SDS011;9315;52.624;13.544;2023-10-31T09:53:27;0.33;;;0.20;;
18376;SDS011;9315;52.624;13.544;2023-10-31T09:55:56;3.10;;;0.60;;
18376;SDS011;9315;52.624;13.544;2023-10-31T09:58:24;1.17;;;0.20;;
18376;SDS011;9315;52.624;13.544;2023-10-31T10:00:51;2.57;;;0.20;;
18376;SDS011;9315;52.624;13.544;2023-10-31T10:03:19;0.73;;;0.30;;
18376;SDS011;9315;52.624;13.544;2023-10-31T10:05:47;3.33;;;1.23;;
18376;SDS011;9315;52.624;13.544;2023-10-31T10:08:19;0.73;;;0.20;;
18376;SDS011;9315;52.624;13.544;2023-10-31T10:10:47;2.30;;;0.23;;
18376;SDS011;9315;52.624;13.544;2023-10-31T10:13:17;3.87;;;0.20;;
18376;SDS011;9315;52.624;13.544;2023-10-31T10:15:50;3.70;;;0.30;;
18376;SDS011;9315;52.624;13.544;2023-10-31T10:18:28;0.73;;;0.40;;
18376;SDS011;9315;52.624;13.544;2023-10-31T10:20:59;2.63;;;0.20;;
18376;SDS011;9315;52.624;13.544;2023-10-31T10:23:29;1.93;;;0.53;;
18376;SDS011;9315;52.624;13.544;2023-10-31T10:26:01;1.07;;;0.30;;
18376;SDS011;9315;52.624;13.544;2023-10-31T10:28:30;0.77;;;0.20;;
18376;SDS011;9315;52.624;13.544;2023-10-31T10:31:00;0.97;;;0.37;;
18376;SDS011;9315;52.624;13.544;2023-10-31T10:33:27;5.53;;;0.50;;
18376;SDS011;9315;52.624;13.544;2023-10-31T10:35:55;0.67;;;0.30;;
18376;SDS011;9315;52.624;13.544;2023-10-31T10:38:23;1.90;;;0.73;;
18376;SDS011;9315;52.624;13.544;2023-10-31T10:40:51;1.53;;;0.40;;
18376;SDS011;9315;52.624;13.544;2023-10-31T10:43:23;2.03;;;0.50;;
18376;SDS011;9315;52.624;13.544;2023-10-31T10:45:54;1.37;;;0.30;;
18376;SDS011;9315;52.624;13.544;2023-10-31T10:48:28;1.30;;;0.40;;
18376;SDS011;9315;52.624;13.544;2023-10-31T10:51:03;2.20;;;0.50;;
18376;SDS011;9315;52.624;13.544;2023-10-31T10:53:58;2.20;;;0.40;;
18376;SDS011;9315;52.624;13.544;2023-10-31T10:56:39;1.63;;;0.50;;
18376;SDS011;9315;52.624;13.544;2023-10-31T10:59:28;4.23;;;0.53;;
18376;SDS011;9315;52.624;13.544;2023-10-31T11:02:07;1.03;;;0.60;;
18376;SDS011;9315;52.624;13.544;2023-10-31T11:04:38;2.50;;;0.70;;
18376;SDS011;9315;52.624;13.544;2023-10-31T11:07:11;1.33;;;0.60;;
18376;SDS011;9315;52.624;13.544;2023-10-31T11:09:40;1.40;;;0.67;;
18376;SDS011;9315;52.624;13.544;2023-10-31T11:12:10;1.23;;;0.50;;
18376;SDS011;9315;52.624;13.544;2023-10-31T11:14:39;2.20;;;0.70;;
18376;SDS011;9315;52.624;13.544;2023-10-31T11:17:11;0.93;;;0.60;;
18376;SDS011;9315;52.624;13.544;2023-10-31T11:19:57;2.23;;;0.80;;
18376;SDS011;9315;52.624;13.544;2023-10-31T11:22:36;1.10;;;0.80;;
18376;SDS011;9315;52.624;13.544;2023-10-31T11:25:17;2.93;;;0.80;;
18376;SDS011;9315;52.624;13.544;2023-10-31T11:28:15;1.43;;;0.90;;
18376;SDS011;9315;52.624;13.544;2023-10-31T11:30:48;3.13;;;1.10;;
18376;SDS011;9315;52.624;13.544;2023-10-31T11:33:18;2.07;;;0.67;;
18376;SDS011;9315;52.624;13.544;2023-10-31T11:35:51;2.27;;;1.13;;
18376;SDS011;9315;52.624;13.544;2023-10-31T11:38:32;3.93;;;0.93;;
18376;SDS011;9315;52.624;13.544;2023-10-31T11:41:04;1.47;;;1.03;;
18376;SDS011;9315;52.624;13.544;2023-10-31T11:46:27;4.50;;;1.20;;
18376;SDS011;9315;52.624;13.544;2023-10-31T11:48:55;1.43;;;0.90;;
18376;SDS011;9315;52.624;13.544;2023-10-31T11:51:24;3.07;;;1.17;;
18376;SDS011;9315;52.624;13.544;2023-10-31T11:53:52;4.63;;;0.90;;
18376;SDS011;9315;52.624;13.544;2023-10-31T11:56:20;4.97;;;0.97;;
18376;SDS011;9315;52.624;13.544;2023-10-31T11:58:59;1.80;;;1.03;;
18376;SDS011;9315;52.624;13.544;2023-10-31T12:01:45;0.80;;;0.80;;
18376;SDS011;9315;52.624;13.544;2023-10-31T12:04:23;3.37;;;0.97;;
18376;SDS011;9315;52.624;13.544;2023-10-31T12:06:57;1.43;;;0.87;;
18376;SDS011;9315;52.624;13.544;2023-10-31T12:09:27;0.93;;;0.90;;
18376;SDS011;9315;52.624;13.544;2023-10-31T12:11:57;3.10;;;0.87;;
18376;SDS011;9315;52.624;13.544;2023-10-31T12:14:25;1.30;;;0.93;;
18376;SDS011;9315;52.624;13.544;2023-10-31T12:16:52;2.23;;;1.07;;
18376;SDS011;9315;52.624;13.544;2023-10-31T12:19:21;1.43;;;0.73;;
18376;SDS011;9315;52.624;13.544;2023-10-31T12:21:49;1.57;;;0.60;;
18376;SDS011;9315;52.624;13.544;2023-10-31T12:24:17;2.00;;;0.70;;
18376;SDS011;9315;52.624;13.544;2023-10-31T12:26:45;2.37;;;0.57;;
18376;SDS011;9315;52.624;13.544;2023-10-31T12:29:14;0.30;;;0.30;;
18376;SDS011;9315;52.624;13.544;2023-10-31T12:31:46;0.53;;;0.40;;
18376;SDS011;9315;52.624;13.544;2023-10-31T12:34:21;4.43;;;0.80;;
18376;SDS011;9315;52.624;13.544;2023-10-31T12:36:52;0.60;;;0.40;;
18376;SDS011;9315;52.624;13.544;2023-10-31T12:39:22;1.87;;;0.60;;
18376;SDS011;9315;52.624;13.544;2023-10-31T12:41:54;1.03;;;0.60;;
18376;SDS011;9315;52.624;13.544;2023-10-31T12:44:25;2.00;;;0.30;;
18376;SDS011;9315;52.624;13.544;2023-10-31T12:46:55;1.80;;;0.37;;
18376;SDS011;9315;52.624;13.544;2023-10-31T12:49:23;0.67;;;0.30;;
18376;SDS011;9315;52.624;13.544;2023-10-31T12:52:09;0.63;;;0.30;;
18376;SDS011;9315;52.624;13.544;2023-10-31T12:54:37;1.23;;;0.33;;
18376;SDS011;9315;52.624;13.544;2023-10-31T12:57:06;2.77;;;0.40;;
18376;SDS011;9315;52.624;13.544;2023-10-31T12:59:37;0.40;;;0.40;;
18376;SDS011;9315;52.624;13.544;2023-10-31T13:02:06;3.03;;;0.40;;
18376;SDS011;9315;52.624;13.544;2023-10-31T13:04:35;1.57;;;0.30;;
18376;SDS011;9315;52.624;13.544;2023-10-31T13:07:04;1.93;;;0.30;;
18376;SDS011;9315;52.624;13.544;2023-10-31T13:09:35;0.77;;;0.30;;
18376;SDS011;9315;52.624;13.544;2023-10-31T13:12:09;1.10;;;0.30;;
18376;SDS011;9315;52.624;13.544;2023-10-31T13:14:42;0.57;;;0.30;;
18376;SDS011;9315;52.624;13.544;2023-10-31T13:17:12;0.63;;;0.30;;
18376;SDS011;9315;52.624;13.544;2023-10-31T13:19:39;1.30;;;0.60;;
18376;SDS011;9315;52.624;13.544;2023-10-31T13:22:10;0.93;;;0.30;;
18376;SDS011;9315;52.624;13.544;2023-10-31T13:24:38;2.43;;;0.30;;
18376;SDS011;9315;52.624;13.544;2023-10-31T13:27:09;0.20;;;0.20;;
18376;SDS011;9315;52.624;13.544;2023-10-31T13:29:42;4.00;;;0.30;;
18376;SDS011;9315;52.624;13.544;2023-10-31T13:32:12;0.60;;;0.20;;
18376;SDS011;9315;52.624;13.544;2023-10-31T13:34:40;2.83;;;0.30;;
18376;SDS011;9315;52.624;13.544;2023-10-31T13:37:07;0.50;;;0.30;;
18376;SDS011;9315;52.624;13.544;2023-10-31T13:39:35;0.97;;;0.20;;
18376;SDS011;9315;52.624;13.544;2023-10-31T13:42:03;0.33;;;0.30;;
18376;SDS011;9315;52.624;13.544;2023-10-31T13:44:31;1.37;;;0.17;;
18376;SDS011;9315;52.624;13.544;2023-10-31T13:46:58;2.53;;;0.20;;
18376;SDS011;9315;52.624;13.544;2023-10-31T13:49:26;0.40;;;0.10;;
18376;SDS011;9315;52.624;13.544;2023-10-31T13:51:54;3.07;;;0.20;;
18376;SDS011;9315;52.624;13.544;2023-10-31T13:54:22;0.70;;;0.10;;
18376;SDS011;9315;52.624;13.544;2023-10-31T13:56:49;3.60;;;0.10;;
18376;SDS011;9315;52.624;13.544;2023-10-31T13:59:16;0.30;;;0.30;;
18376;SDS011;9315;52.624;13.544;2023-10-31T14:01:44;0.20;;;0.20;;
18376;SDS011;9315;52.624;13.544;2023-10-31T14:04:13;0.73;;;0.23;;
18376;SDS011;9315;52.624;13.544;2023-10-31T14:06:41;2.10;;;0.20;;
18376;SDS011;9315;52.624;13.544;2023-10-31T14:09:10;0.30;;;0.17;;
18376;SDS011;9315;52.624;13.544;2023-10-31T14:11:39;2.67;;;0.30;;
18376;SDS011;9315;52.624;13.544;2023-10-31T14:14:08;1.90;;;1.70;;
18376;SDS011;9315;52.624;13.544;2023-10-31T14:16:37;1.20;;;0.40;;
18376;SDS011;9315;52.624;13.544;2023-10-31T14:19:10;1.47;;;0.30;;
18376;SDS011;9315;52.624;13.544;2023-10-31T14:21:38;0.50;;;0.37;;
18376;SDS011;9315;52.624;13.544;2023-10-31T14:24:07;0.63;;;0.20;;
18376;SDS011;9315;52.624;13.544;2023-10-31T14:26:38;0.10;;;0.10;;
18376;SDS011;9315;52.624;13.544;2023-10-31T14:29:10;0.27;;;0.10;;
18376;SDS011;9315;52.624;13.544;2023-10-31T14:31:39;1.33;;;0.40;;
18376;SDS011;9315;52.624;13.544;2023-10-31T14:34:10;5.57;;;0.20;;
18376;SDS011;9315;52.624;13.544;2023-10-31T14:36:38;0.27;;;0.20;;
18376;SDS011;9315;52.624;13.544;2023-10-31T14:39:06;2.77;;;0.30;;
18376;SDS011;9315;52.624;13.544;2023-10-31T14:41:35;0.27;;;0.27;;
18376;SDS011;9315;52.624;13.544;2023-10-31T14:44:02;0.50;;;0.10;;
18376;SDS011;9315;52.624;13.544;2023-10-31T14:46:30;0.13;;;0.10;;
18376;SDS011;9315;52.624;13.544;2023-10-31T14:48:59;0.60;;;0.30;;
18376;SDS011;9315;52.624;13.544;2023-10-31T14:51:26;0.73;;;0.47;;
18376;SDS011;9315;52.624;13.544;2023-10-31T14:53:54;0.10;;;0.10;;